createdAt,value
2018-05-04T00:00:29.625Z,0.80
2018-05-04T00:02:33.433Z,0.50
2018-05-04T00:04:39.141Z,0.77
2018-05-04T00:06:43.037Z,0.87
2018-05-04T00:08:47.659Z,1.27
2018-05-04T00:10:52.744Z,0.43
2018-05-04T00:12:56.519Z,0.83
2018-05-04T00:15:00.416Z,0.50
2018-05-04T00:17:04.859Z,0.67
2018-05-04T00:19:08.706Z,1.03
2018-05-04T00:21:12.522Z,1.13
2018-05-04T00:23:17.388Z,0.20
2018-05-04T00:25:21.148Z,1.00
2018-05-04T00:27:24.973Z,0.70
2018-05-04T00:29:30.149Z,0.93
2018-05-04T00:31:35.049Z,1.17
2018-05-04T00:33:38.824Z,0.70
2018-05-04T00:35:43.821Z,0.67
2018-05-04T00:37:48.106Z,0.40
2018-05-04T00:39:52.841Z,0.50
2018-05-04T00:41:56.696Z,0.93
2018-05-04T00:44:00.560Z,0.57
2018-05-04T00:46:04.377Z,1.13
2018-05-04T00:48:08.590Z,0.60
2018-05-04T00:50:12.368Z,0.43
2018-05-04T00:52:16.307Z,0.50
2018-05-04T00:54:24.548Z,0.97
2018-05-04T00:56:28.369Z,0.20
2018-05-04T00:58:32.217Z,1.40
2018-05-04T01:00:36.340Z,0.60
2018-05-04T01:02:40.202Z,0.40
2018-05-04T01:04:44.640Z,0.30
2018-05-04T01:06:49.526Z,0.90
2018-05-04T01:08:54.143Z,0.40
2018-05-04T01:10:58.086Z,0.20
2018-05-04T01:13:02.155Z,0.23
2018-05-04T01:15:06.559Z,0.73
2018-05-04T01:17:11.137Z,0.50
2018-05-04T01:19:15.461Z,0.40
2018-05-04T01:21:19.230Z,0.30
2018-05-04T01:23:23.024Z,0.40
2018-05-04T01:25:27.133Z,0.20
2018-05-04T01:27:31.114Z,0.50
2018-05-04T01:29:35.652Z,0.30
2018-05-04T01:31:39.960Z,0.20
2018-05-04T01:33:43.850Z,0.63
2018-05-04T01:35:48.470Z,0.30
2018-05-04T01:37:53.312Z,0.63
2018-05-04T01:39:58.109Z,0.30
2018-05-04T01:42:02.448Z,0.30
2018-05-04T01:44:07.433Z,0.30
2018-05-04T01:46:11.297Z,0.30
2018-05-04T01:48:15.232Z,0.20
2018-05-04T01:50:19.390Z,0.40
2018-05-04T01:52:23.392Z,0.27
2018-05-04T01:54:27.610Z,0.40
2018-05-04T01:56:38.252Z,0.30
2018-05-04T01:58:42.180Z,0.60
2018-05-04T02:00:46.944Z,0.20
2018-05-04T02:02:50.786Z,0.30
2018-05-04T02:04:54.755Z,0.33
2018-05-04T02:07:00.349Z,0.20
2018-05-04T02:09:06.049Z,1.20
2018-05-04T02:11:09.899Z,1.20
2018-05-04T02:13:13.954Z,0.80
2018-05-04T02:15:18.139Z,0.37
2018-05-04T02:17:22.304Z,0.10
2018-05-04T02:19:26.212Z,0.13
2018-05-04T02:21:30.526Z,0.30
2018-05-04T02:23:34.489Z,0.40
2018-05-04T02:25:38.280Z,0.37
2018-05-04T02:27:42.237Z,0.30
2018-05-04T02:29:46.209Z,0.10
2018-05-04T02:31:50.795Z,1.37
2018-05-04T02:33:55.073Z,0.20
2018-05-04T02:36:00.577Z,0.33
2018-05-04T02:38:05.144Z,0.50
2018-05-04T02:40:09.323Z,0.20
2018-05-04T02:42:13.856Z,0.10
2018-05-04T02:44:17.717Z,0.10
2018-05-04T02:46:22.034Z,0.30
2018-05-04T02:48:25.944Z,0.30
2018-05-04T02:50:29.982Z,0.93
2018-05-04T02:52:33.881Z,0.33
2018-05-04T02:54:37.700Z,0.10
2018-05-04T02:56:41.539Z,0.10
2018-05-04T02:58:45.400Z,0.70
2018-05-04T03:00:49.331Z,0.60
2018-05-04T03:02:53.233Z,0.30
2018-05-04T03:04:57.541Z,0.20
2018-05-04T03:07:01.489Z,0.73
2018-05-04T03:09:05.608Z,0.73
2018-05-04T03:11:10.470Z,0.20
2018-05-04T03:13:14.445Z,0.13
2018-05-04T03:15:18.292Z,0.20
2018-05-04T03:17:22.630Z,0.20
2018-05-04T03:19:26.424Z,0.57
2018-05-04T03:21:30.286Z,0.30
2018-05-04T03:23:34.985Z,0.43
2018-05-04T03:25:38.795Z,0.20
2018-05-04T03:27:42.625Z,0.23
2018-05-04T03:29:47.546Z,0.40
2018-05-04T03:31:52.187Z,0.10
2018-05-04T03:33:56.047Z,0.30
2018-05-04T03:36:01.186Z,0.53
2018-05-04T03:38:05.038Z,0.27
2018-05-04T03:40:08.809Z,0.10
2018-05-04T03:42:13.653Z,0.50
2018-05-04T03:44:18.379Z,0.17
2018-05-04T03:46:22.349Z,0.17
2018-05-04T03:48:26.291Z,0.70
2018-05-04T03:50:30.218Z,0.20
2018-05-04T03:52:34.090Z,0.20
2018-05-04T03:54:42.458Z,0.23
2018-05-04T03:56:46.411Z,0.60
2018-05-04T04:03:08.315Z,0.77
2018-05-04T04:05:12.379Z,0.57
2018-05-04T04:07:17.501Z,0.10
2018-05-04T04:09:22.111Z,0.40
2018-05-04T04:11:26.053Z,0.20
2018-05-04T04:13:30.026Z,0.10
2018-05-04T04:15:33.899Z,0.63
2018-05-04T04:17:37.666Z,0.73
2018-05-04T04:19:41.969Z,0.43
2018-05-04T04:21:46.896Z,0.10
2018-05-04T04:23:51.627Z,0.20
2018-05-04T04:25:56.536Z,0.20
2018-05-04T04:28:00.372Z,0.27
2018-05-04T04:30:06.002Z,1.27
2018-05-04T04:32:11.150Z,1.03
2018-05-04T04:34:17.210Z,0.30
2018-05-04T04:36:21.098Z,0.20
2018-05-04T04:38:25.697Z,0.10
2018-05-04T04:40:29.539Z,0.50
2018-05-04T04:42:33.447Z,0.30
2018-05-04T04:44:37.628Z,0.30
2018-05-04T04:46:41.447Z,0.20
2018-05-04T04:48:46.003Z,0.30
2018-05-04T04:50:50.213Z,0.20
2018-05-04T04:52:54.051Z,0.10
2018-05-04T04:54:57.859Z,0.40
2018-05-04T04:57:02.041Z,0.10
2018-05-04T04:59:06.587Z,0.10
2018-05-04T05:01:10.482Z,0.60
2018-05-04T05:03:14.295Z,0.40
2018-05-04T05:05:18.973Z,0.40
2018-05-04T05:07:22.871Z,0.00
2018-05-04T05:09:26.705Z,0.10
2018-05-04T05:11:30.523Z,0.30
2018-05-04T05:13:34.334Z,0.53
2018-05-04T05:15:40.629Z,0.20
2018-05-04T05:17:45.239Z,0.80
2018-05-04T05:19:49.866Z,0.40
2018-05-04T05:21:54.809Z,0.20
2018-05-04T05:23:58.640Z,0.47
2018-05-04T05:26:02.685Z,0.10
2018-05-04T05:28:07.956Z,0.57
2018-05-04T05:30:13.054Z,0.23
2018-05-04T05:32:17.668Z,0.20
2018-05-04T05:34:22.761Z,0.40
2018-05-04T05:36:26.797Z,0.27
2018-05-04T05:38:30.671Z,0.70
2018-05-04T05:40:35.092Z,0.10
2018-05-04T05:42:39.095Z,0.10
2018-05-04T05:44:43.004Z,0.20
2018-05-04T05:46:47.454Z,0.30
2018-05-04T05:48:51.312Z,0.20
2018-05-04T05:50:55.241Z,0.70
2018-05-04T05:53:01.639Z,0.33
2018-05-04T05:55:05.440Z,0.63
2018-05-04T05:57:10.004Z,0.33
2018-05-04T05:59:14.621Z,0.30
2018-05-04T06:01:19.570Z,0.50
2018-05-04T06:03:23.558Z,0.17
2018-05-04T06:05:28.545Z,1.10
2018-05-04T06:07:32.877Z,0.20
2018-05-04T06:09:36.792Z,0.30
2018-05-04T06:11:42.145Z,0.40
2018-05-04T06:13:46.704Z,1.23
2018-05-04T06:15:50.555Z,0.37
2018-05-04T06:17:56.366Z,0.20
2018-05-04T06:20:00.535Z,0.53
2018-05-04T06:22:05.237Z,0.20
2018-05-04T06:24:11.590Z,0.60
2018-05-04T06:26:17.248Z,0.57
2018-05-04T06:28:22.885Z,0.50
2018-05-04T06:30:27.183Z,0.60
2018-05-04T06:32:31.188Z,0.50
2018-05-04T06:34:35.106Z,0.40
2018-05-04T06:36:39.460Z,0.10
2018-05-04T06:38:43.835Z,0.10
2018-05-04T06:40:48.562Z,0.60
2018-05-04T06:42:52.759Z,0.73
2018-05-04T06:44:56.705Z,0.53
2018-05-04T06:47:07.174Z,0.60
2018-05-04T06:49:12.726Z,0.87
2018-05-04T06:51:18.292Z,0.83
2018-05-04T06:53:22.217Z,1.60
2018-05-04T06:55:28.903Z,0.20
2018-05-04T06:57:32.823Z,0.47
2018-05-04T06:59:37.793Z,0.60
2018-05-04T07:01:42.150Z,0.43
2018-05-04T07:03:46.371Z,4.43
2018-05-04T07:05:50.428Z,0.33
2018-05-04T07:07:54.893Z,0.40
2018-05-04T07:09:58.892Z,0.50
2018-05-04T07:12:02.708Z,0.30
2018-05-04T07:14:06.610Z,0.10
2018-05-04T07:16:11.289Z,0.20
2018-05-04T07:18:20.850Z,0.20
2018-05-04T07:20:30.945Z,0.47
2018-05-04T07:22:38.191Z,0.53
2018-05-04T07:24:50.334Z,0.10
2018-05-04T07:26:55.987Z,0.50
2018-05-04T07:29:02.024Z,0.50
2018-05-04T07:31:11.157Z,0.57
2018-05-04T07:33:14.955Z,0.10
2018-05-04T07:35:18.788Z,0.20
2018-05-04T07:37:23.704Z,0.50
2018-05-04T07:39:28.586Z,0.30
2018-05-04T07:41:32.644Z,0.20
2018-05-04T07:43:40.426Z,0.30
2018-05-04T07:45:54.018Z,0.20
2018-05-04T07:47:58.316Z,0.17
2018-05-04T07:50:03.310Z,0.50
2018-05-04T07:52:08.326Z,0.47
2018-05-04T07:54:15.031Z,0.20
2018-05-04T07:56:30.189Z,2.00
2018-05-04T07:58:34.965Z,0.40
2018-05-04T08:00:38.772Z,0.67
2018-05-04T08:02:47.672Z,0.87
2018-05-04T08:04:52.237Z,1.30
2018-05-04T08:06:56.435Z,0.40
2018-05-04T08:09:00.883Z,0.60
2018-05-04T08:11:05.507Z,0.87
2018-05-04T08:13:10.438Z,0.23
2018-05-04T08:15:16.593Z,0.30
2018-05-04T08:17:21.456Z,0.20
2018-05-04T08:19:26.056Z,0.83
2018-05-04T08:21:31.072Z,1.03
2018-05-04T08:23:34.970Z,0.60
2018-05-04T08:25:39.341Z,0.67
2018-05-04T08:27:44.562Z,0.77
2018-05-04T08:29:49.160Z,0.40
2018-05-04T08:31:53.111Z,0.40
2018-05-04T08:33:57.669Z,0.40
2018-05-04T08:36:01.901Z,0.77
2018-05-04T08:38:07.582Z,0.20
2018-05-04T08:40:11.755Z,0.23
2018-05-04T08:42:16.262Z,0.50
2018-05-04T08:44:20.128Z,0.93
2018-05-04T08:46:26.066Z,0.50
2018-05-04T08:48:30.724Z,0.50
2018-05-04T08:50:37.163Z,0.47
2018-05-04T08:52:41.476Z,0.30
2018-05-04T08:54:45.332Z,0.20
2018-05-04T08:56:49.217Z,0.23
2018-05-04T08:58:53.555Z,0.50
2018-05-04T09:00:57.452Z,0.60
2018-05-04T09:03:01.737Z,0.73
2018-05-04T09:05:05.816Z,0.50
2018-05-04T09:07:11.807Z,0.57
2018-05-04T09:09:16.423Z,0.63
2018-05-04T09:11:23.088Z,0.40
2018-05-04T09:13:27.597Z,0.80
2018-05-04T09:15:32.071Z,0.70
2018-05-04T09:17:36.350Z,0.93
2018-05-04T09:19:40.181Z,0.43
2018-05-04T09:21:44.263Z,0.27
2018-05-04T09:23:48.675Z,0.30
2018-05-04T09:25:52.565Z,1.03
2018-05-04T09:27:56.425Z,0.47
2018-05-04T09:30:00.360Z,0.20
2018-05-04T09:32:06.192Z,0.10
2018-05-04T09:34:10.055Z,0.13
2018-05-04T09:36:14.608Z,0.60
2018-05-04T09:38:18.561Z,0.33
2018-05-04T09:40:22.538Z,0.57
2018-05-04T09:42:27.898Z,0.30
2018-05-04T09:44:31.839Z,0.43
2018-05-04T09:46:35.819Z,0.57
2018-05-04T09:48:41.432Z,0.23
2018-05-04T09:50:46.061Z,0.70
2018-05-04T09:52:49.996Z,0.37
2018-05-04T09:54:53.851Z,0.30
2018-05-04T09:56:57.858Z,0.30
2018-05-04T09:59:01.917Z,0.67
2018-05-04T10:01:07.519Z,0.77
2018-05-04T10:03:12.101Z,0.33
2018-05-04T10:05:16.992Z,0.70
2018-05-04T10:07:22.279Z,0.10
2018-05-04T10:09:26.935Z,0.43
2018-05-04T10:11:30.942Z,0.10
2018-05-04T10:13:38.749Z,1.43
2018-05-04T10:15:42.580Z,0.10
2018-05-04T10:17:46.550Z,0.40
2018-05-04T10:19:50.760Z,0.30
2018-05-04T10:21:54.674Z,0.50
2018-05-04T10:23:58.587Z,0.83
2018-05-04T10:26:03.047Z,1.13
2018-05-04T10:28:06.975Z,1.80
2018-05-04T10:30:12.692Z,0.20
2018-05-04T10:32:17.352Z,0.47
2018-05-04T10:34:21.314Z,1.13
2018-05-04T10:36:25.301Z,0.40
2018-05-04T10:38:34.666Z,0.10
2018-05-04T10:40:42.415Z,0.20
2018-05-04T10:42:46.399Z,0.40
2018-05-04T10:44:51.185Z,0.57
2018-05-04T10:46:55.069Z,0.80
2018-05-04T10:49:00.784Z,0.70
2018-05-04T10:51:09.529Z,0.47
2018-05-04T10:53:14.260Z,1.00
2018-05-04T10:55:19.646Z,0.00
2018-05-04T10:57:24.097Z,1.30
2018-05-04T10:59:28.793Z,0.60
2018-05-04T11:01:32.780Z,0.20
2018-05-04T11:03:36.962Z,0.30
2018-05-04T11:05:40.785Z,0.17
2018-05-04T11:07:44.803Z,0.70
2018-05-04T11:09:49.128Z,0.40
2018-05-04T11:11:53.059Z,0.33
2018-05-04T11:13:57.043Z,0.10
2018-05-04T11:16:01.079Z,1.03
2018-05-04T11:18:04.980Z,0.40
2018-05-04T11:20:08.884Z,0.50
2018-05-04T11:22:14.223Z,1.27
2018-05-04T11:24:19.739Z,0.87
2018-05-04T11:26:24.210Z,0.10
2018-05-04T11:28:29.469Z,0.60
2018-05-04T11:30:33.606Z,0.30
2018-05-04T11:32:37.730Z,0.40
2018-05-04T11:34:42.893Z,0.50
2018-05-04T11:36:46.934Z,0.57
2018-05-04T11:38:51.560Z,0.10
2018-05-04T11:40:55.454Z,0.80
2018-05-04T11:43:00.123Z,0.80
2018-05-04T11:45:06.233Z,0.53
2018-05-04T11:47:14.351Z,0.70
2018-05-04T11:49:18.152Z,0.77
2018-05-04T11:51:22.710Z,1.23
2018-05-04T11:53:26.996Z,1.63
2018-05-04T11:55:30.844Z,0.33
2018-05-04T11:57:34.783Z,0.67
2018-05-04T11:59:39.751Z,0.20
2018-05-04T12:01:45.086Z,0.43
2018-05-04T12:03:48.936Z,0.33
2018-05-04T12:05:53.414Z,0.40
2018-05-04T12:07:57.266Z,0.80
2018-05-04T12:10:01.269Z,0.23
2018-05-04T12:12:05.454Z,0.60
2018-05-04T12:14:09.360Z,1.00
2018-05-04T12:16:14.468Z,0.20
2018-05-04T12:18:21.591Z,1.07
2018-05-04T12:20:26.349Z,0.40
2018-05-04T12:22:32.370Z,0.40
2018-05-04T12:24:36.807Z,0.40
2018-05-04T12:26:42.205Z,0.30
2018-05-04T12:28:46.599Z,0.90
2018-05-04T12:30:50.606Z,0.40
2018-05-04T12:32:54.682Z,1.03
2018-05-04T12:34:58.516Z,0.63
2018-05-04T12:37:02.538Z,0.60
2018-05-04T12:39:06.838Z,0.20
2018-05-04T12:41:10.918Z,0.80
2018-05-04T12:43:15.017Z,0.20
2018-05-04T12:45:19.221Z,0.57
2018-05-04T12:47:23.127Z,0.83
2018-05-04T12:49:27.025Z,0.60
2018-05-04T12:51:30.925Z,1.23
2018-05-04T12:53:34.955Z,2.00
2018-05-04T12:55:38.823Z,0.60
2018-05-04T12:57:44.249Z,0.50
2018-05-04T12:59:48.199Z,0.33
2018-05-04T13:01:54.500Z,0.50
2018-05-04T13:03:59.639Z,0.53
2018-05-04T13:06:03.821Z,0.57
2018-05-04T13:08:07.770Z,0.50
2018-05-04T13:10:12.599Z,0.50
2018-05-04T13:12:16.503Z,0.20
2018-05-04T13:14:20.503Z,1.90
2018-05-04T13:16:24.782Z,0.50
2018-05-04T13:18:28.744Z,0.90
2018-05-04T13:20:32.817Z,1.37
2018-05-04T13:22:37.865Z,0.33
2018-05-04T13:24:41.778Z,0.77
2018-05-04T13:26:45.727Z,0.47
2018-05-04T13:28:50.119Z,0.27
2018-05-04T13:30:54.835Z,0.27
2018-05-04T13:32:58.681Z,0.20
2018-05-04T13:35:02.855Z,0.57
2018-05-04T13:37:08.212Z,0.60
2018-05-04T13:39:12.277Z,0.43
2018-05-04T13:41:17.037Z,0.57
2018-05-04T13:43:20.948Z,0.30
2018-05-04T13:45:24.829Z,0.50
2018-05-04T13:47:28.630Z,0.50
2018-05-04T13:49:32.760Z,0.40
2018-05-04T13:51:36.644Z,0.60
2018-05-04T13:53:42.071Z,0.67
2018-05-04T13:55:46.928Z,0.80
2018-05-04T13:58:09.426Z,0.60
2018-05-04T14:00:16.243Z,0.20
2018-05-04T14:02:20.515Z,1.27
2018-05-04T14:04:24.556Z,0.50
2018-05-04T14:06:28.691Z,0.30
2018-05-04T14:08:32.642Z,0.10
2018-05-04T14:10:36.524Z,0.97
2018-05-04T14:12:40.550Z,0.50
2018-05-04T14:14:44.423Z,0.40
2018-05-04T14:16:48.667Z,1.00
2018-05-04T14:18:52.524Z,0.80
2018-05-04T14:20:56.493Z,0.63
2018-05-04T14:23:03.476Z,0.23
2018-05-04T14:25:07.533Z,0.70
2018-05-04T14:27:14.185Z,1.33
2018-05-04T14:29:20.817Z,0.70
2018-05-04T14:31:25.770Z,0.67
2018-05-04T14:33:29.626Z,0.63
2018-05-04T14:35:33.852Z,0.60
2018-05-04T14:37:37.753Z,0.73
2018-05-04T14:39:41.652Z,1.03
2018-05-04T14:41:45.616Z,0.20
2018-05-04T14:43:49.796Z,0.73
2018-05-04T14:45:53.653Z,0.87
2018-05-04T14:48:00.545Z,0.93
2018-05-04T14:50:04.404Z,0.53
2018-05-04T14:52:08.363Z,0.37
2018-05-04T14:54:12.755Z,0.43
2018-05-04T14:56:17.033Z,0.93
2018-05-04T14:58:21.790Z,0.70
2018-05-04T15:00:26.074Z,0.30
2018-05-04T15:02:32.198Z,0.50
2018-05-04T15:04:36.172Z,0.30
2018-05-04T15:06:39.980Z,0.50
2018-05-04T15:08:44.134Z,0.40
2018-05-04T15:10:47.969Z,0.83
2018-05-04T15:12:52.874Z,1.23
2018-05-04T15:14:58.467Z,0.23
2018-05-04T15:17:02.470Z,0.10
2018-05-04T15:19:06.795Z,0.10
2018-05-04T15:21:10.897Z,0.33
2018-05-04T15:23:15.304Z,0.40
2018-05-04T15:25:20.437Z,0.70
2018-05-04T15:27:24.580Z,0.83
2018-05-04T15:29:28.837Z,0.50
2018-05-04T15:31:33.595Z,0.50
2018-05-04T15:33:37.478Z,0.73
2018-05-04T15:35:42.943Z,0.40
2018-05-04T15:37:46.780Z,0.80
2018-05-04T15:39:51.675Z,0.47
2018-05-04T15:41:55.594Z,0.70
2018-05-04T15:43:59.494Z,0.57
2018-05-04T15:46:03.469Z,0.10
2018-05-04T15:48:11.861Z,0.70
2018-05-04T15:50:20.014Z,0.73
2018-05-04T15:52:24.059Z,0.50
2018-05-04T15:54:30.503Z,0.83
2018-05-04T15:56:40.677Z,0.83
2018-05-04T15:58:44.646Z,0.40
2018-05-04T16:00:48.830Z,0.90
2018-05-04T16:02:52.637Z,0.20
2018-05-04T16:04:58.211Z,0.10
2018-05-04T16:07:02.169Z,0.83
2018-05-04T16:09:07.178Z,0.50
2018-05-04T16:11:11.026Z,1.20
2018-05-04T16:13:15.110Z,0.90
2018-05-04T16:15:19.850Z,0.70
2018-05-04T16:17:24.025Z,0.80
2018-05-04T16:19:28.304Z,0.60
2018-05-04T16:21:32.158Z,0.60
2018-05-04T16:23:35.984Z,0.47
2018-05-04T16:25:40.147Z,0.67
2018-05-04T16:27:44.005Z,0.50
2018-05-04T16:29:47.808Z,0.70
2018-05-04T16:31:51.924Z,0.67
2018-05-04T16:33:55.841Z,1.00
2018-05-04T16:35:59.686Z,0.50
2018-05-04T16:38:03.781Z,0.93
2018-05-04T16:40:07.615Z,1.13
2018-05-04T16:42:12.466Z,0.73
2018-05-04T16:44:17.688Z,0.20
2018-05-04T16:46:26.618Z,1.17
2018-05-04T16:48:35.472Z,0.70
2018-05-04T16:50:39.842Z,0.83
2018-05-04T16:52:44.573Z,0.60
2018-05-04T16:54:49.927Z,0.77
2018-05-04T16:56:54.637Z,0.10
2018-05-04T16:58:59.369Z,0.73
2018-05-04T17:01:04.760Z,0.30
2018-05-04T17:03:08.974Z,0.17
2018-05-04T17:05:13.132Z,0.20
2018-05-04T17:07:17.095Z,0.10
2018-05-04T17:09:21.426Z,1.80
2018-05-04T17:11:25.747Z,0.70
2018-05-04T17:13:29.683Z,0.60
2018-05-04T17:15:35.275Z,0.37
2018-05-04T17:17:39.263Z,0.40
2018-05-04T17:19:43.214Z,0.20
2018-05-04T17:21:49.017Z,0.53
2018-05-04T17:23:52.969Z,0.20
2018-05-04T17:25:56.880Z,0.83
2018-05-04T17:28:00.766Z,0.90
2018-05-04T17:30:07.313Z,0.50
2018-05-04T17:32:11.291Z,0.40
2018-05-04T17:34:15.258Z,0.33
2018-05-04T17:36:19.073Z,0.47
2018-05-04T17:38:23.104Z,0.47
2018-05-04T17:40:28.052Z,0.20
2018-05-04T17:42:32.307Z,0.50
2018-05-04T17:44:37.726Z,1.50
2018-05-04T17:46:41.885Z,0.60
2018-05-04T17:48:45.867Z,0.10
2018-05-04T17:50:50.425Z,0.53
2018-05-04T17:52:55.002Z,0.83
2018-05-04T17:54:58.969Z,0.33
2018-05-04T17:57:03.613Z,1.10
2018-05-04T17:59:07.446Z,0.57
2018-05-04T18:01:11.308Z,0.73
2018-05-04T18:03:15.588Z,0.87
2018-05-04T18:05:20.339Z,0.30
2018-05-04T18:07:24.959Z,0.57
2018-05-04T18:09:30.388Z,0.40
2018-05-04T18:11:34.975Z,0.87
2018-05-04T18:13:47.386Z,0.40
2018-05-04T18:15:52.290Z,0.67
2018-05-04T18:17:56.151Z,0.10
2018-05-04T18:20:00.145Z,0.40
2018-05-04T18:22:04.326Z,3.13
2018-05-04T18:24:08.147Z,3.10
2018-05-04T18:26:12.095Z,3.53
2018-05-04T18:28:16.022Z,3.13
2018-05-04T18:30:19.951Z,3.40
2018-05-04T18:32:24.066Z,3.17
2018-05-04T18:34:29.185Z,3.23
2018-05-04T18:36:32.994Z,3.27
2018-05-04T18:38:37.404Z,3.30
2018-05-04T18:40:41.750Z,3.30
2018-05-04T18:42:45.626Z,3.30
2018-05-04T18:44:49.553Z,3.37
2018-05-04T18:46:54.721Z,3.63
2018-05-04T18:48:59.403Z,3.37
2018-05-04T18:51:03.317Z,3.63
2018-05-04T18:53:07.239Z,3.40
2018-05-04T18:55:11.062Z,3.23
2018-05-04T18:57:15.022Z,3.57
2018-05-04T18:59:18.926Z,3.20
2018-05-04T19:01:23.097Z,3.47
2018-05-04T19:03:27.178Z,3.50
2018-05-04T19:05:31.357Z,3.37
2018-05-04T19:07:35.243Z,3.67
2018-05-04T19:09:39.154Z,3.27
2018-05-04T19:11:44.351Z,3.60
2018-05-04T19:13:49.018Z,3.13
2018-05-04T19:15:52.974Z,3.37
2018-05-04T19:17:56.865Z,3.30
2018-05-04T19:20:01.121Z,3.37
2018-05-04T19:22:05.019Z,3.00
2018-05-04T19:24:09.145Z,3.17
2018-05-04T19:26:13.015Z,2.97
2018-05-04T19:28:17.598Z,3.70
2018-05-04T19:30:21.977Z,3.23
2018-05-04T19:32:26.240Z,3.03
2018-05-04T19:34:30.247Z,3.27
2018-05-04T19:36:34.380Z,3.23
2018-05-04T19:38:39.077Z,3.10
2018-05-04T19:40:43.073Z,3.20
2018-05-04T19:42:47.294Z,2.97
2018-05-04T19:44:51.135Z,2.73
2018-05-04T19:46:55.073Z,3.23
2018-05-04T19:48:58.942Z,3.30
2018-05-04T19:51:04.639Z,3.47
2018-05-04T19:53:08.523Z,3.23
2018-05-04T19:55:13.708Z,2.87
2018-05-04T19:57:17.527Z,3.20
2018-05-04T19:59:22.313Z,3.37
2018-05-04T20:01:30.139Z,3.40
2018-05-04T20:03:34.851Z,3.40
2018-05-04T20:05:38.818Z,2.83
2018-05-04T20:07:43.990Z,3.03
2018-05-04T20:09:48.020Z,3.23
2018-05-04T20:11:52.908Z,3.57
2018-05-04T20:13:56.746Z,2.80
2018-05-04T20:16:01.545Z,2.87
2018-05-04T20:18:05.493Z,3.43
2018-05-04T20:20:10.718Z,2.97
2018-05-04T20:22:14.616Z,2.90
2018-05-04T20:24:18.580Z,3.33
2018-05-04T20:26:24.173Z,3.20
2018-05-04T20:28:28.213Z,3.17
2018-05-04T20:30:33.031Z,3.30
2018-05-04T20:32:38.087Z,3.30
2018-05-04T20:34:42.046Z,3.20
2018-05-04T20:36:45.994Z,3.20
2018-05-04T20:38:50.378Z,3.10
2018-05-04T20:40:54.242Z,2.90
2018-05-04T20:42:59.144Z,3.07
2018-05-04T20:45:05.178Z,3.10
2018-05-04T20:47:09.781Z,2.97
2018-05-04T20:49:13.678Z,3.40
2018-05-04T20:51:17.846Z,2.90
2018-05-04T20:53:21.745Z,2.97
2018-05-04T20:55:25.989Z,3.00
2018-05-04T20:57:30.286Z,3.17
2018-05-04T20:59:34.134Z,2.70
2018-05-04T21:01:37.999Z,3.10
2018-05-04T21:03:41.902Z,3.17
2018-05-04T21:05:45.915Z,3.10
2018-05-04T21:07:49.762Z,3.40
2018-05-04T21:09:53.750Z,2.87
2018-05-04T21:11:57.665Z,2.90
2018-05-04T21:14:01.590Z,3.23
2018-05-04T21:16:05.713Z,3.40
2018-05-04T21:18:10.397Z,3.07
2018-05-04T21:20:14.262Z,3.67
2018-05-04T21:22:18.585Z,3.57
2018-05-04T21:24:22.505Z,3.60
2018-05-04T21:26:26.743Z,2.90
2018-05-04T21:28:31.005Z,3.60
2018-05-04T21:30:34.859Z,3.47
2018-05-04T21:32:38.777Z,3.53
2018-05-04T21:34:43.906Z,3.30
2018-05-04T21:36:47.773Z,3.63
2018-05-04T21:38:52.444Z,3.40
2018-05-04T21:40:57.640Z,3.33
2018-05-04T21:43:02.306Z,3.30
2018-05-04T21:45:07.317Z,3.37
2018-05-04T21:47:11.479Z,3.23
2018-05-04T21:49:15.318Z,3.53
2018-05-04T21:51:19.260Z,3.43
2018-05-04T21:53:23.739Z,3.60
2018-05-04T21:55:27.795Z,3.20
2018-05-04T21:57:32.433Z,3.07
2018-05-04T21:59:36.234Z,3.40
2018-05-04T22:01:40.943Z,2.77
2018-05-04T22:03:45.575Z,2.83
2018-05-04T22:05:50.484Z,2.60
2018-05-04T22:07:54.466Z,3.43
2018-05-04T22:09:58.283Z,3.60
2018-05-04T22:12:03.441Z,2.90
2018-05-04T22:14:08.049Z,3.47
2018-05-04T22:16:12.035Z,2.93
2018-05-04T22:18:16.259Z,3.03
2018-05-04T22:20:20.182Z,3.20
2018-05-04T22:22:24.990Z,3.00
2018-05-04T22:24:28.938Z,3.17
2018-05-04T22:26:32.925Z,3.30
2018-05-04T22:28:37.616Z,3.20
2018-05-04T22:30:41.471Z,3.33
2018-05-04T22:32:46.143Z,3.07
2018-05-04T22:34:49.952Z,2.87
2018-05-04T22:36:54.157Z,3.50
2018-05-04T22:38:57.916Z,3.10
2018-05-04T22:41:01.782Z,2.83
2018-05-04T22:43:06.055Z,3.00
2018-05-04T22:45:10.020Z,3.07
2018-05-04T22:47:13.892Z,3.57
2018-05-04T22:49:17.725Z,3.57
2018-05-04T22:51:21.603Z,3.67
2018-05-04T22:53:25.721Z,3.20
2018-05-04T22:55:31.708Z,3.10
2018-05-04T22:57:36.295Z,2.90
2018-05-04T22:59:40.142Z,3.10
2018-05-04T23:01:45.233Z,3.60
2018-05-04T23:03:49.096Z,3.33
2018-05-04T23:05:53.578Z,3.13
2018-05-04T23:07:57.716Z,3.20
2018-05-04T23:10:01.596Z,3.53
2018-05-04T23:12:05.478Z,3.60
2018-05-04T23:14:09.627Z,0.30
2018-05-04T23:16:14.171Z,3.20
2018-05-04T23:18:17.965Z,3.13
2018-05-04T23:20:22.260Z,3.00
2018-05-04T23:22:29.233Z,3.33
2018-05-04T23:24:33.187Z,3.37
2018-05-04T23:26:37.297Z,3.03
2018-05-04T23:28:41.111Z,2.80
2018-05-04T23:30:44.920Z,2.93
2018-05-04T23:32:49.129Z,3.10
2018-05-04T23:34:53.367Z,3.03
2018-05-04T23:36:57.181Z,3.07
2018-05-04T23:39:02.097Z,2.90
2018-05-04T23:41:05.935Z,3.20
2018-05-04T23:43:10.466Z,2.93
2018-05-04T23:45:16.152Z,2.67
2018-05-04T23:47:21.954Z,2.90
2018-05-04T23:49:25.818Z,2.97
2018-05-04T23:51:29.735Z,2.97
2018-05-04T23:53:33.560Z,3.00
2018-05-04T23:55:38.434Z,2.87
2018-05-04T23:57:42.303Z,3.00
2018-05-04T23:59:46.425Z,3.60
